sensor_id;sensor_type;location;lat;lon;timestamp;P1;durP1;ratioP1;P2;durP2;ratioP2
37559;SDS011;23398;50.928;7.084;2022-12-11T00:01:08;22.97;;;14.90;;
37559;SDS011;23398;50.928;7.084;2022-12-11T00:03:35;23.30;;;14.83;;
37559;SDS011;23398;50.928;7.084;2022-12-11T00:06:03;27.70;;;16.03;;
37559;SDS011;23398;50.928;7.084;2022-12-11T00:08:32;24.47;;;15.57;;
37559;SDS011;23398;50.928;7.084;2022-12-11T00:10:58;24.83;;;15.07;;
37559;SDS011;23398;50.928;7.084;2022-12-11T00:13:23;26.70;;;15.57;;
37559;SDS011;23398;50.928;7.084;2022-12-11T00:15:49;23.10;;;14.77;;
37559;SDS011;23398;50.928;7.084;2022-12-11T00:18:14;26.23;;;15.63;;
37559;SDS011;23398;50.928;7.084;2022-12-11T00:20:40;27.20;;;16.87;;
37559;SDS011;23398;50.928;7.084;2022-12-11T00:23:06;23.20;;;14.70;;
37559;SDS011;23398;50.928;7.084;2022-12-11T00:25:31;25.70;;;14.93;;
37559;SDS011;23398;50.928;7.084;2022-12-11T00:27:57;22.37;;;14.10;;
37559;SDS011;23398;50.928;7.084;2022-12-11T00:30:22;23.60;;;14.23;;
37559;SDS011;23398;50.928;7.084;2022-12-11T00:32:50;24.07;;;14.67;;
37559;SDS011;23398;50.928;7.084;2022-12-11T00:35:15;24.33;;;14.67;;
37559;SDS011;23398;50.928;7.084;2022-12-11T00:37:41;23.80;;;15.00;;
37559;SDS011;23398;50.928;7.084;2022-12-11T00:40:07;22.60;;;13.83;;
37559;SDS011;23398;50.928;7.084;2022-12-11T00:42:33;23.77;;;14.50;;
37559;SDS011;23398;50.928;7.084;2022-12-11T00:44:58;23.70;;;14.63;;
37559;SDS011;23398;50.928;7.084;2022-12-11T00:47:24;24.30;;;14.50;;
37559;SDS011;23398;50.928;7.084;2022-12-11T00:49:49;22.70;;;14.17;;
37559;SDS011;23398;50.928;7.084;2022-12-11T00:52:15;24.47;;;14.13;;
37559;SDS011;23398;50.928;7.084;2022-12-11T00:54:41;21.33;;;13.53;;
37559;SDS011;23398;50.928;7.084;2022-12-11T00:57:07;25.27;;;15.70;;
37559;SDS011;23398;50.928;7.084;2022-12-11T00:59:32;26.30;;;15.50;;
37559;SDS011;23398;50.928;7.084;2022-12-11T01:01:58;23.00;;;15.17;;
37559;SDS011;23398;50.928;7.084;2022-12-11T01:04:23;22.23;;;14.90;;
37559;SDS011;23398;50.928;7.084;2022-12-11T01:06:49;23.27;;;14.57;;
37559;SDS011;23398;50.928;7.084;2022-12-11T01:09:14;21.57;;;14.07;;
37559;SDS011;23398;50.928;7.084;2022-12-11T01:11:59;24.23;;;14.33;;
37559;SDS011;23398;50.928;7.084;2022-12-11T01:14:25;23.30;;;14.63;;
37559;SDS011;23398;50.928;7.084;2022-12-11T01:16:51;23.17;;;14.13;;
37559;SDS011;23398;50.928;7.084;2022-12-11T01:19:16;21.87;;;13.30;;
37559;SDS011;23398;50.928;7.084;2022-12-11T01:21:42;25.00;;;14.60;;
37559;SDS011;23398;50.928;7.084;2022-12-11T01:24:07;25.07;;;14.40;;
37559;SDS011;23398;50.928;7.084;2022-12-11T01:26:33;25.67;;;14.20;;
37559;SDS011;23398;50.928;7.084;2022-12-11T01:28:58;24.77;;;14.37;;
37559;SDS011;23398;50.928;7.084;2022-12-11T01:31:24;24.40;;;14.43;;
37559;SDS011;23398;50.928;7.084;2022-12-11T01:33:52;23.67;;;13.53;;
37559;SDS011;23398;50.928;7.084;2022-12-11T01:36:18;24.77;;;13.27;;
37559;SDS011;23398;50.928;7.084;2022-12-11T01:38:46;24.97;;;13.50;;
37559;SDS011;23398;50.928;7.084;2022-12-11T01:41:12;25.27;;;13.80;;
37559;SDS011;23398;50.928;7.084;2022-12-11T01:43:59;25.90;;;13.48;;
37559;SDS011;23398;50.928;7.084;2022-12-11T01:46:30;25.90;;;13.13;;
37559;SDS011;23398;50.928;7.084;2022-12-11T01:48:58;24.93;;;14.40;;
37559;SDS011;23398;50.928;7.084;2022-12-11T01:51:25;25.90;;;14.23;;
37559;SDS011;23398;50.928;7.084;2022-12-11T01:53:54;30.30;;;14.90;;
37559;SDS011;23398;50.928;7.084;2022-12-11T01:56:23;32.53;;;15.30;;
37559;SDS011;23398;50.928;7.084;2022-12-11T01:58:51;32.10;;;15.40;;
37559;SDS011;23398;50.928;7.084;2022-12-11T02:01:34;37.57;;;15.67;;
37559;SDS011;23398;50.928;7.084;2022-12-11T02:04:04;29.20;;;14.47;;
37559;SDS011;23398;50.928;7.084;2022-12-11T02:06:39;30.87;;;15.27;;
37559;SDS011;23398;50.928;7.084;2022-12-11T02:09:08;29.77;;;15.07;;
37559;SDS011;23398;50.928;7.084;2022-12-11T02:17:25;34.07;;;15.30;;
37559;SDS011;23398;50.928;7.084;2022-12-11T02:20:16;28.17;;;15.03;;
37559;SDS011;23398;50.928;7.084;2022-12-11T02:25:35;28.57;;;14.13;;
37559;SDS011;23398;50.928;7.084;2022-12-11T02:28:27;31.73;;;15.10;;
37559;SDS011;23398;50.928;7.084;2022-12-11T02:31:14;27.98;;;14.80;;
37559;SDS011;23398;50.928;7.084;2022-12-11T02:33:49;27.67;;;14.73;;
37559;SDS011;23398;50.928;7.084;2022-12-11T02:36:24;29.60;;;15.27;;
37559;SDS011;23398;50.928;7.084;2022-12-11T02:38:53;30.03;;;16.17;;
37559;SDS011;23398;50.928;7.084;2022-12-11T02:41:21;28.60;;;14.73;;
37559;SDS011;23398;50.928;7.084;2022-12-11T02:43:49;28.27;;;15.07;;
37559;SDS011;23398;50.928;7.084;2022-12-11T02:46:16;28.43;;;15.60;;
37559;SDS011;23398;50.928;7.084;2022-12-11T02:48:44;30.00;;;16.00;;
37559;SDS011;23398;50.928;7.084;2022-12-11T02:51:12;34.53;;;17.03;;
37559;SDS011;23398;50.928;7.084;2022-12-11T02:53:41;32.13;;;16.07;;
37559;SDS011;23398;50.928;7.084;2022-12-11T02:56:12;28.07;;;15.53;;
37559;SDS011;23398;50.928;7.084;2022-12-11T02:58:49;27.70;;;15.23;;
37559;SDS011;23398;50.928;7.084;2022-12-11T03:01:19;28.40;;;14.73;;
37559;SDS011;23398;50.928;7.084;2022-12-11T03:03:44;26.90;;;15.03;;
37559;SDS011;23398;50.928;7.084;2022-12-11T03:06:10;26.33;;;14.67;;
37559;SDS011;23398;50.928;7.084;2022-12-11T03:08:42;25.30;;;15.37;;
37559;SDS011;23398;50.928;7.084;2022-12-11T03:11:09;26.87;;;15.80;;
37559;SDS011;23398;50.928;7.084;2022-12-11T03:13:36;26.60;;;14.47;;
37559;SDS011;23398;50.928;7.084;2022-12-11T03:19:21;26.90;;;14.13;;
37559;SDS011;23398;50.928;7.084;2022-12-11T03:21:53;25.40;;;14.20;;
37559;SDS011;23398;50.928;7.084;2022-12-11T03:24:45;25.67;;;14.30;;
37559;SDS011;23398;50.928;7.084;2022-12-11T03:30:04;23.50;;;14.20;;
37559;SDS011;23398;50.928;7.084;2022-12-11T03:32:37;28.10;;;15.13;;
37559;SDS011;23398;50.928;7.084;2022-12-11T03:35:18;26.57;;;13.63;;
37559;SDS011;23398;50.928;7.084;2022-12-11T03:37:49;28.47;;;14.90;;
37559;SDS011;23398;50.928;7.084;2022-12-11T03:40:17;29.70;;;14.63;;
37559;SDS011;23398;50.928;7.084;2022-12-11T03:42:45;27.37;;;14.97;;
37559;SDS011;23398;50.928;7.084;2022-12-11T03:45:15;23.67;;;14.50;;
37559;SDS011;23398;50.928;7.084;2022-12-11T03:47:42;25.00;;;14.17;;
37559;SDS011;23398;50.928;7.084;2022-12-11T03:50:11;25.03;;;14.23;;
37559;SDS011;23398;50.928;7.084;2022-12-11T03:52:40;26.33;;;14.63;;
37559;SDS011;23398;50.928;7.084;2022-12-11T03:55:08;30.53;;;15.17;;
37559;SDS011;23398;50.928;7.084;2022-12-11T03:57:37;28.03;;;14.20;;
37559;SDS011;23398;50.928;7.084;2022-12-11T04:00:04;27.27;;;14.70;;
37559;SDS011;23398;50.928;7.084;2022-12-11T04:02:31;26.90;;;14.67;;
37559;SDS011;23398;50.928;7.084;2022-12-11T04:04:57;31.17;;;16.10;;
37559;SDS011;23398;50.928;7.084;2022-12-11T04:07:22;28.00;;;14.90;;
37559;SDS011;23398;50.928;7.084;2022-12-11T04:09:48;30.93;;;15.77;;
37559;SDS011;23398;50.928;7.084;2022-12-11T04:12:14;30.73;;;15.50;;
37559;SDS011;23398;50.928;7.084;2022-12-11T04:14:39;32.37;;;15.83;;
37559;SDS011;23398;50.928;7.084;2022-12-11T04:17:24;27.67;;;14.67;;
37559;SDS011;23398;50.928;7.084;2022-12-11T04:20:08;32.33;;;14.97;;
37559;SDS011;23398;50.928;7.084;2022-12-11T04:23:11;29.27;;;14.60;;
37559;SDS011;23398;50.928;7.084;2022-12-11T04:26:04;28.23;;;13.67;;
37559;SDS011;23398;50.928;7.084;2022-12-11T04:28:35;29.10;;;14.23;;
37559;SDS011;23398;50.928;7.084;2022-12-11T04:31:01;28.90;;;14.70;;
37559;SDS011;23398;50.928;7.084;2022-12-11T04:33:27;28.97;;;14.27;;
37559;SDS011;23398;50.928;7.084;2022-12-11T04:35:53;30.30;;;14.87;;
37559;SDS011;23398;50.928;7.084;2022-12-11T04:38:21;25.93;;;14.00;;
37559;SDS011;23398;50.928;7.084;2022-12-11T04:40:46;32.03;;;15.17;;
37559;SDS011;23398;50.928;7.084;2022-12-11T04:43:12;27.80;;;15.17;;
37559;SDS011;23398;50.928;7.084;2022-12-11T04:45:37;26.87;;;13.73;;
37559;SDS011;23398;50.928;7.084;2022-12-11T04:48:03;29.37;;;14.17;;
37559;SDS011;23398;50.928;7.084;2022-12-11T04:50:29;26.47;;;14.57;;
37559;SDS011;23398;50.928;7.084;2022-12-11T04:52:54;27.37;;;13.93;;
37559;SDS011;23398;50.928;7.084;2022-12-11T04:55:21;27.83;;;14.30;;
37559;SDS011;23398;50.928;7.084;2022-12-11T04:57:47;28.60;;;15.00;;
37559;SDS011;23398;50.928;7.084;2022-12-11T05:00:13;27.03;;;14.53;;
37559;SDS011;23398;50.928;7.084;2022-12-11T05:02:40;30.03;;;14.57;;
37559;SDS011;23398;50.928;7.084;2022-12-11T05:05:06;26.83;;;13.83;;
37559;SDS011;23398;50.928;7.084;2022-12-11T05:07:34;27.43;;;14.47;;
37559;SDS011;23398;50.928;7.084;2022-12-11T05:10:00;27.10;;;14.53;;
37559;SDS011;23398;50.928;7.084;2022-12-11T05:12:26;26.23;;;13.63;;
37559;SDS011;23398;50.928;7.084;2022-12-11T05:14:52;31.60;;;14.03;;
37559;SDS011;23398;50.928;7.084;2022-12-11T05:17:18;26.17;;;13.38;;
37559;SDS011;23398;50.928;7.084;2022-12-11T05:19:46;25.77;;;13.23;;
37559;SDS011;23398;50.928;7.084;2022-12-11T05:22:15;29.10;;;12.97;;
37559;SDS011;23398;50.928;7.084;2022-12-11T05:24:42;28.98;;;14.00;;
37559;SDS011;23398;50.928;7.084;2022-12-11T05:27:08;29.07;;;14.33;;
37559;SDS011;23398;50.928;7.084;2022-12-11T05:29:34;30.83;;;14.70;;
37559;SDS011;23398;50.928;7.084;2022-12-11T05:31:59;25.40;;;13.17;;
37559;SDS011;23398;50.928;7.084;2022-12-11T05:34:25;22.40;;;12.77;;
37559;SDS011;23398;50.928;7.084;2022-12-11T05:36:51;25.87;;;12.70;;
37559;SDS011;23398;50.928;7.084;2022-12-11T05:39:16;23.83;;;12.10;;
37559;SDS011;23398;50.928;7.084;2022-12-11T05:41:42;25.73;;;12.70;;
37559;SDS011;23398;50.928;7.084;2022-12-11T05:44:10;25.57;;;13.53;;
37559;SDS011;23398;50.928;7.084;2022-12-11T05:46:36;26.27;;;13.87;;
37559;SDS011;23398;50.928;7.084;2022-12-11T05:49:02;27.33;;;13.40;;
37559;SDS011;23398;50.928;7.084;2022-12-11T05:51:28;25.60;;;13.23;;
37559;SDS011;23398;50.928;7.084;2022-12-11T05:53:54;24.50;;;13.40;;
37559;SDS011;23398;50.928;7.084;2022-12-11T05:56:22;26.33;;;14.23;;
37559;SDS011;23398;50.928;7.084;2022-12-11T05:58:50;26.70;;;14.50;;
37559;SDS011;23398;50.928;7.084;2022-12-11T06:01:21;28.33;;;14.30;;
37559;SDS011;23398;50.928;7.084;2022-12-11T06:03:47;26.00;;;13.83;;
37559;SDS011;23398;50.928;7.084;2022-12-11T06:06:12;25.60;;;14.40;;
37559;SDS011;23398;50.928;7.084;2022-12-11T06:08:39;27.53;;;14.63;;
37559;SDS011;23398;50.928;7.084;2022-12-11T06:11:04;30.67;;;14.67;;
37559;SDS011;23398;50.928;7.084;2022-12-11T06:13:30;27.73;;;14.97;;
37559;SDS011;23398;50.928;7.084;2022-12-11T06:16:00;25.50;;;14.50;;
37559;SDS011;23398;50.928;7.084;2022-12-11T06:18:26;28.97;;;15.13;;
37559;SDS011;23398;50.928;7.084;2022-12-11T06:20:52;27.07;;;14.60;;
37559;SDS011;23398;50.928;7.084;2022-12-11T06:23:18;26.27;;;13.83;;
37559;SDS011;23398;50.928;7.084;2022-12-11T06:25:44;26.87;;;14.37;;
37559;SDS011;23398;50.928;7.084;2022-12-11T06:28:09;22.80;;;12.40;;
37559;SDS011;23398;50.928;7.084;2022-12-11T06:30:35;26.03;;;13.33;;
37559;SDS011;23398;50.928;7.084;2022-12-11T06:33:01;27.57;;;14.07;;
37559;SDS011;23398;50.928;7.084;2022-12-11T06:35:26;29.20;;;14.70;;
37559;SDS011;23398;50.928;7.084;2022-12-11T06:37:52;28.00;;;14.70;;
37559;SDS011;23398;50.928;7.084;2022-12-11T06:40:18;31.00;;;15.50;;
37559;SDS011;23398;50.928;7.084;2022-12-11T06:42:43;27.07;;;13.87;;
37559;SDS011;23398;50.928;7.084;2022-12-11T06:45:09;29.77;;;15.23;;
37559;SDS011;23398;50.928;7.084;2022-12-11T06:47:35;28.17;;;14.60;;
37559;SDS011;23398;50.928;7.084;2022-12-11T06:50:00;30.80;;;15.37;;
37559;SDS011;23398;50.928;7.084;2022-12-11T06:52:26;27.10;;;14.30;;
37559;SDS011;23398;50.928;7.084;2022-12-11T06:54:52;28.60;;;14.53;;
37559;SDS011;23398;50.928;7.084;2022-12-11T06:57:18;26.73;;;14.47;;
37559;SDS011;23398;50.928;7.084;2022-12-11T06:59:45;30.20;;;15.10;;
37559;SDS011;23398;50.928;7.084;2022-12-11T07:02:14;28.70;;;15.50;;
37559;SDS011;23398;50.928;7.084;2022-12-11T07:04:40;29.33;;;15.20;;
37559;SDS011;23398;50.928;7.084;2022-12-11T07:07:07;29.73;;;15.57;;
37559;SDS011;23398;50.928;7.084;2022-12-11T07:09:33;31.10;;;15.80;;
37559;SDS011;23398;50.928;7.084;2022-12-11T07:11:59;31.53;;;15.57;;
37559;SDS011;23398;50.928;7.084;2022-12-11T07:14:25;31.03;;;16.30;;
37559;SDS011;23398;50.928;7.084;2022-12-11T07:16:50;27.03;;;14.97;;
37559;SDS011;23398;50.928;7.084;2022-12-11T07:19:16;32.73;;;15.97;;
37559;SDS011;23398;50.928;7.084;2022-12-11T07:21:42;29.67;;;15.67;;
37559;SDS011;23398;50.928;7.084;2022-12-11T07:24:07;32.27;;;15.33;;
37559;SDS011;23398;50.928;7.084;2022-12-11T07:26:33;33.53;;;16.73;;
37559;SDS011;23398;50.928;7.084;2022-12-11T07:28:59;30.27;;;17.13;;
37559;SDS011;23398;50.928;7.084;2022-12-11T07:31:26;32.97;;;16.80;;
37559;SDS011;23398;50.928;7.084;2022-12-11T07:33:53;31.73;;;16.00;;
37559;SDS011;23398;50.928;7.084;2022-12-11T07:36:23;30.10;;;15.80;;
37559;SDS011;23398;50.928;7.084;2022-12-11T07:38:49;31.87;;;16.13;;
37559;SDS011;23398;50.928;7.084;2022-12-11T07:41:15;29.70;;;15.47;;
37559;SDS011;23398;50.928;7.084;2022-12-11T07:43:41;29.90;;;15.03;;
37559;SDS011;23398;50.928;7.084;2022-12-11T07:46:26;31.80;;;16.07;;
37559;SDS011;23398;50.928;7.084;2022-12-11T07:48:53;28.80;;;15.17;;
37559;SDS011;23398;50.928;7.084;2022-12-11T07:51:25;27.23;;;14.70;;
37559;SDS011;23398;50.928;7.084;2022-12-11T07:53:59;29.07;;;16.03;;
37559;SDS011;23398;50.928;7.084;2022-12-11T07:56:27;30.33;;;15.87;;
37559;SDS011;23398;50.928;7.084;2022-12-11T07:58:53;27.03;;;14.93;;
37559;SDS011;23398;50.928;7.084;2022-12-11T08:01:21;28.13;;;15.13;;
37559;SDS011;23398;50.928;7.084;2022-12-11T08:03:49;30.23;;;15.50;;
37559;SDS011;23398;50.928;7.084;2022-12-11T08:06:16;29.20;;;15.63;;
37559;SDS011;23398;50.928;7.084;2022-12-11T08:08:42;29.33;;;14.97;;
37559;SDS011;23398;50.928;7.084;2022-12-11T08:11:09;29.10;;;15.17;;
37559;SDS011;23398;50.928;7.084;2022-12-11T08:13:36;29.47;;;15.17;;
37559;SDS011;23398;50.928;7.084;2022-12-11T08:16:02;28.67;;;15.13;;
37559;SDS011;23398;50.928;7.084;2022-12-11T08:18:32;28.60;;;14.90;;
37559;SDS011;23398;50.928;7.084;2022-12-11T08:20:58;30.53;;;15.10;;
37559;SDS011;23398;50.928;7.084;2022-12-11T08:23:28;32.37;;;16.37;;
37559;SDS011;23398;50.928;7.084;2022-12-11T08:25:53;28.10;;;15.63;;
37559;SDS011;23398;50.928;7.084;2022-12-11T08:28:19;26.77;;;14.33;;
37559;SDS011;23398;50.928;7.084;2022-12-11T08:30:45;28.23;;;15.37;;
37559;SDS011;23398;50.928;7.084;2022-12-11T08:33:11;31.30;;;15.93;;
37559;SDS011;23398;50.928;7.084;2022-12-11T08:35:37;30.00;;;15.97;;
37559;SDS011;23398;50.928;7.084;2022-12-11T08:38:03;27.03;;;15.40;;
37559;SDS011;23398;50.928;7.084;2022-12-11T08:40:29;30.63;;;16.20;;
37559;SDS011;23398;50.928;7.084;2022-12-11T08:42:55;31.10;;;15.47;;
37559;SDS011;23398;50.928;7.084;2022-12-11T08:45:20;32.13;;;16.13;;
37559;SDS011;23398;50.928;7.084;2022-12-11T08:47:46;27.83;;;15.53;;
37559;SDS011;23398;50.928;7.084;2022-12-11T08:50:11;28.60;;;14.57;;
37559;SDS011;23398;50.928;7.084;2022-12-11T08:52:37;30.97;;;15.70;;
37559;SDS011;23398;50.928;7.084;2022-12-11T08:55:03;28.20;;;15.17;;
37559;SDS011;23398;50.928;7.084;2022-12-11T08:57:29;29.03;;;15.87;;
37559;SDS011;23398;50.928;7.084;2022-12-11T08:59:54;30.40;;;15.10;;
37559;SDS011;23398;50.928;7.084;2022-12-11T09:02:20;29.23;;;15.80;;
37559;SDS011;23398;50.928;7.084;2022-12-11T09:04:45;29.97;;;15.27;;
37559;SDS011;23398;50.928;7.084;2022-12-11T09:07:11;27.93;;;15.47;;
37559;SDS011;23398;50.928;7.084;2022-12-11T09:09:36;27.50;;;13.83;;
37559;SDS011;23398;50.928;7.084;2022-12-11T09:12:02;27.90;;;15.13;;
37559;SDS011;23398;50.928;7.084;2022-12-11T09:14:28;30.57;;;15.83;;
37559;SDS011;23398;50.928;7.084;2022-12-11T09:16:54;29.10;;;15.10;;
37559;SDS011;23398;50.928;7.084;2022-12-11T09:19:20;28.70;;;15.00;;
37559;SDS011;23398;50.928;7.084;2022-12-11T09:21:46;25.03;;;14.50;;
37559;SDS011;23398;50.928;7.084;2022-12-11T09:24:11;30.00;;;15.30;;
37559;SDS011;23398;50.928;7.084;2022-12-11T09:26:37;31.27;;;15.00;;
37559;SDS011;23398;50.928;7.084;2022-12-11T09:29:04;29.37;;;15.33;;
37559;SDS011;23398;50.928;7.084;2022-12-11T09:31:31;28.33;;;15.27;;
37559;SDS011;23398;50.928;7.084;2022-12-11T09:34:03;29.63;;;16.13;;
37559;SDS011;23398;50.928;7.084;2022-12-11T09:36:30;32.17;;;15.97;;
37559;SDS011;23398;50.928;7.084;2022-12-11T09:39:00;31.57;;;17.03;;
37559;SDS011;23398;50.928;7.084;2022-12-11T09:44:15;34.30;;;16.27;;
37559;SDS011;23398;50.928;7.084;2022-12-11T09:46:48;33.17;;;16.37;;
37559;SDS011;23398;50.928;7.084;2022-12-11T09:49:31;33.70;;;16.20;;
37559;SDS011;23398;50.928;7.084;2022-12-11T09:54:56;34.53;;;16.67;;
37559;SDS011;23398;50.928;7.084;2022-12-11T10:05:53;32.70;;;16.93;;
37559;SDS011;23398;50.928;7.084;2022-12-11T10:08:29;33.93;;;18.27;;
37559;SDS011;23398;50.928;7.084;2022-12-11T10:13:43;37.97;;;17.30;;
37559;SDS011;23398;50.928;7.084;2022-12-11T10:16:28;40.23;;;18.83;;
37559;SDS011;23398;50.928;7.084;2022-12-11T10:19:13;47.37;;;25.37;;
37559;SDS011;23398;50.928;7.084;2022-12-11T10:21:46;50.37;;;27.83;;
37559;SDS011;23398;50.928;7.084;2022-12-11T10:24:16;41.40;;;21.77;;
37559;SDS011;23398;50.928;7.084;2022-12-11T10:27:11;42.27;;;21.43;;
37559;SDS011;23398;50.928;7.084;2022-12-11T10:29:41;41.70;;;19.60;;
37559;SDS011;23398;50.928;7.084;2022-12-11T10:32:10;40.90;;;18.87;;
37559;SDS011;23398;50.928;7.084;2022-12-11T10:34:45;35.63;;;18.53;;
37559;SDS011;23398;50.928;7.084;2022-12-11T10:37:15;36.90;;;18.13;;
37559;SDS011;23398;50.928;7.084;2022-12-11T10:39:40;36.47;;;18.10;;
37559;SDS011;23398;50.928;7.084;2022-12-11T10:42:14;33.73;;;16.80;;
37559;SDS011;23398;50.928;7.084;2022-12-11T10:44:53;35.53;;;17.60;;
37559;SDS011;23398;50.928;7.084;2022-12-11T10:47:20;37.08;;;17.50;;
37559;SDS011;23398;50.928;7.084;2022-12-11T10:49:53;33.80;;;17.17;;
37559;SDS011;23398;50.928;7.084;2022-12-11T10:52:28;36.00;;;17.80;;
37559;SDS011;23398;50.928;7.084;2022-12-11T10:55:01;34.03;;;17.40;;
37559;SDS011;23398;50.928;7.084;2022-12-11T10:57:41;32.73;;;16.53;;
37559;SDS011;23398;50.928;7.084;2022-12-11T11:00:24;28.83;;;15.63;;
37559;SDS011;23398;50.928;7.084;2022-12-11T11:02:57;28.48;;;15.00;;
37559;SDS011;23398;50.928;7.084;2022-12-11T11:05:30;31.43;;;16.90;;
37559;SDS011;23398;50.928;7.084;2022-12-11T11:08:15;29.57;;;15.67;;
37559;SDS011;23398;50.928;7.084;2022-12-11T11:10:59;26.70;;;14.45;;
37559;SDS011;23398;50.928;7.084;2022-12-11T11:13:26;30.10;;;15.87;;
37559;SDS011;23398;50.928;7.084;2022-12-11T11:16:00;32.80;;;16.47;;
37559;SDS011;23398;50.928;7.084;2022-12-11T11:18:36;30.95;;;16.15;;
37559;SDS011;23398;50.928;7.084;2022-12-11T11:21:03;33.93;;;16.50;;
37559;SDS011;23398;50.928;7.084;2022-12-11T11:23:29;30.70;;;16.42;;
37559;SDS011;23398;50.928;7.084;2022-12-11T11:25:56;32.30;;;16.27;;
37559;SDS011;23398;50.928;7.084;2022-12-11T11:28:26;29.03;;;14.93;;
37559;SDS011;23398;50.928;7.084;2022-12-11T11:30:58;30.05;;;15.50;;
37559;SDS011;23398;50.928;7.084;2022-12-11T11:33:27;26.77;;;14.07;;
37559;SDS011;23398;50.928;7.084;2022-12-11T11:35:56;28.67;;;14.77;;
37559;SDS011;23398;50.928;7.084;2022-12-11T11:38:33;25.77;;;13.68;;
37559;SDS011;23398;50.928;7.084;2022-12-11T11:41:05;28.27;;;14.60;;
37559;SDS011;23398;50.928;7.084;2022-12-11T11:43:57;23.77;;;12.98;;
37559;SDS011;23398;50.928;7.084;2022-12-11T11:46:30;24.15;;;13.80;;
37559;SDS011;23398;50.928;7.084;2022-12-11T11:51:33;24.67;;;13.30;;
37559;SDS011;23398;50.928;7.084;2022-12-11T11:54:19;24.33;;;13.35;;
37559;SDS011;23398;50.928;7.084;2022-12-11T11:57:46;26.30;;;13.30;;
37559;SDS011;23398;50.928;7.084;2022-12-11T12:00:04;22.27;;;12.10;;
37559;SDS011;23398;50.928;7.084;2022-12-11T12:02:39;22.42;;;12.07;;
37559;SDS011;23398;50.928;7.084;2022-12-11T12:05:08;23.85;;;13.45;;
37559;SDS011;23398;50.928;7.084;2022-12-11T12:18:02;26.10;;;14.07;;
37559;SDS011;23398;50.928;7.084;2022-12-11T12:20:54;26.35;;;14.43;;
37559;SDS011;23398;50.928;7.084;2022-12-11T12:40:29;23.13;;;12.60;;
37559;SDS011;23398;50.928;7.084;2022-12-11T12:48:32;23.20;;;12.80;;
37559;SDS011;23398;50.928;7.084;2022-12-11T12:50:58;25.23;;;14.30;;
37559;SDS011;23398;50.928;7.084;2022-12-11T12:53:26;25.80;;;13.95;;
37559;SDS011;23398;50.928;7.084;2022-12-11T12:55:56;24.35;;;13.55;;
37559;SDS011;23398;50.928;7.084;2022-12-11T13:03:58;23.80;;;12.75;;
37559;SDS011;23398;50.928;7.084;2022-12-11T13:06:44;26.77;;;13.20;;
37559;SDS011;23398;50.928;7.084;2022-12-11T13:09:18;23.33;;;12.77;;
37559;SDS011;23398;50.928;7.084;2022-12-11T13:11:46;21.07;;;11.70;;
37559;SDS011;23398;50.928;7.084;2022-12-11T13:16:45;21.60;;;11.07;;
37559;SDS011;23398;50.928;7.084;2022-12-11T13:19:32;23.15;;;12.45;;
37559;SDS011;23398;50.928;7.084;2022-12-11T13:24:55;21.92;;;11.55;;
37559;SDS011;23398;50.928;7.084;2022-12-11T13:30:15;22.50;;;11.82;;
37559;SDS011;23398;50.928;7.084;2022-12-11T13:38:56;22.77;;;12.13;;
37559;SDS011;23398;50.928;7.084;2022-12-11T13:41:25;24.98;;;13.60;;
37559;SDS011;23398;50.928;7.084;2022-12-11T13:43:51;23.13;;;12.35;;
37559;SDS011;23398;50.928;7.084;2022-12-11T13:46:24;26.20;;;12.25;;
37559;SDS011;23398;50.928;7.084;2022-12-11T13:48:58;24.42;;;12.32;;
37559;SDS011;23398;50.928;7.084;2022-12-11T13:51:28;24.80;;;13.35;;
37559;SDS011;23398;50.928;7.084;2022-12-11T13:54:02;29.15;;;14.02;;
37559;SDS011;23398;50.928;7.084;2022-12-11T13:56:38;24.40;;;13.00;;
37559;SDS011;23398;50.928;7.084;2022-12-11T13:59:03;25.13;;;13.27;;
37559;SDS011;23398;50.928;7.084;2022-12-11T14:01:32;21.85;;;11.85;;
37559;SDS011;23398;50.928;7.084;2022-12-11T14:04:06;24.42;;;12.45;;
37559;SDS011;23398;50.928;7.084;2022-12-11T14:06:36;21.55;;;11.20;;
37559;SDS011;23398;50.928;7.084;2022-12-11T14:09:03;22.88;;;11.15;;
37559;SDS011;23398;50.928;7.084;2022-12-11T14:11:34;21.50;;;11.93;;
37559;SDS011;23398;50.928;7.084;2022-12-11T14:14:04;24.60;;;11.93;;
37559;SDS011;23398;50.928;7.084;2022-12-11T14:16:32;22.50;;;11.70;;
37559;SDS011;23398;50.928;7.084;2022-12-11T14:19:01;24.30;;;12.77;;
37559;SDS011;23398;50.928;7.084;2022-12-11T14:21:29;24.30;;;11.98;;
37559;SDS011;23398;50.928;7.084;2022-12-11T14:23:55;20.60;;;11.77;;
37559;SDS011;23398;50.928;7.084;2022-12-11T14:26:23;25.17;;;12.27;;
37559;SDS011;23398;50.928;7.084;2022-12-11T14:28:54;24.70;;;12.57;;
37559;SDS011;23398;50.928;7.084;2022-12-11T14:31:33;23.02;;;12.18;;
37559;SDS011;23398;50.928;7.084;2022-12-11T14:34:12;20.35;;;11.63;;
37559;SDS011;23398;50.928;7.084;2022-12-11T14:36:44;22.58;;;11.25;;
37559;SDS011;23398;50.928;7.084;2022-12-11T14:42:11;21.42;;;11.63;;
37559;SDS011;23398;50.928;7.084;2022-12-11T14:44:43;21.17;;;11.23;;
37559;SDS011;23398;50.928;7.084;2022-12-11T14:47:20;21.40;;;11.32;;
37559;SDS011;23398;50.928;7.084;2022-12-11T14:49:55;23.02;;;12.07;;
37559;SDS011;23398;50.928;7.084;2022-12-11T14:52:28;20.20;;;11.00;;
37559;SDS011;23398;50.928;7.084;2022-12-11T14:54:59;23.20;;;12.05;;
37559;SDS011;23398;50.928;7.084;2022-12-11T14:57:32;24.73;;;11.63;;
37559;SDS011;23398;50.928;7.084;2022-12-11T14:59:59;21.85;;;11.68;;
37559;SDS011;23398;50.928;7.084;2022-12-11T15:02:26;20.98;;;11.98;;
37559;SDS011;23398;50.928;7.084;2022-12-11T15:05:18;19.73;;;10.68;;
37559;SDS011;23398;50.928;7.084;2022-12-11T15:08:00;21.92;;;11.48;;
37559;SDS011;23398;50.928;7.084;2022-12-11T15:10:29;23.60;;;11.77;;
37559;SDS011;23398;50.928;7.084;2022-12-11T15:13:00;23.52;;;12.65;;
37559;SDS011;23398;50.928;7.084;2022-12-11T15:15:29;23.25;;;12.40;;
37559;SDS011;23398;50.928;7.084;2022-12-11T15:17:57;23.30;;;11.73;;
37559;SDS011;23398;50.928;7.084;2022-12-11T15:20:31;18.85;;;10.85;;
37559;SDS011;23398;50.928;7.084;2022-12-11T15:22:57;22.05;;;11.68;;
37559;SDS011;23398;50.928;7.084;2022-12-11T15:25:26;23.33;;;12.20;;
37559;SDS011;23398;50.928;7.084;2022-12-11T15:27:55;22.63;;;11.50;;
37559;SDS011;23398;50.928;7.084;2022-12-11T15:30:24;20.60;;;11.15;;
37559;SDS011;23398;50.928;7.084;2022-12-11T15:35:36;20.65;;;11.07;;
37559;SDS011;23398;50.928;7.084;2022-12-11T15:38:04;20.67;;;11.45;;
37559;SDS011;23398;50.928;7.084;2022-12-11T15:40:29;22.15;;;11.07;;
37559;SDS011;23398;50.928;7.084;2022-12-11T15:42:55;18.40;;;10.30;;
37559;SDS011;23398;50.928;7.084;2022-12-11T15:45:25;20.15;;;10.55;;
37559;SDS011;23398;50.928;7.084;2022-12-11T15:47:54;21.08;;;11.15;;
37559;SDS011;23398;50.928;7.084;2022-12-11T15:50:21;27.23;;;12.77;;
37559;SDS011;23398;50.928;7.084;2022-12-11T15:52:51;23.80;;;12.82;;
37559;SDS011;23398;50.928;7.084;2022-12-11T15:55:18;25.13;;;12.88;;
37559;SDS011;23398;50.928;7.084;2022-12-11T15:57:45;25.35;;;13.50;;
37559;SDS011;23398;50.928;7.084;2022-12-11T16:00:14;21.98;;;12.27;;
37559;SDS011;23398;50.928;7.084;2022-12-11T16:02:42;23.52;;;11.98;;
37559;SDS011;23398;50.928;7.084;2022-12-11T16:05:08;24.13;;;12.38;;
37559;SDS011;23398;50.928;7.084;2022-12-11T16:07:34;22.02;;;11.60;;